createdAt,value
2023-03-16T00:02:44.416Z,1.73
2023-03-16T00:05:47.152Z,4.23
2023-03-16T00:08:49.918Z,4.05
2023-03-16T00:11:52.283Z,5.18
2023-03-16T00:14:55.017Z,2.08
2023-03-16T00:17:57.406Z,5.05
2023-03-16T00:21:02.326Z,3.07
2023-03-16T00:24:04.789Z,4.65
2023-03-16T00:27:07.111Z,4.70
2023-03-16T00:30:11.409Z,7.70
2023-03-16T00:33:14.196Z,2.50
2023-03-16T00:36:16.899Z,4.60
2023-03-16T00:39:18.894Z,7.95
2023-03-16T00:42:27.531Z,2.50
2023-03-16T00:45:29.914Z,4.75
2023-03-16T00:48:34.805Z,4.03
2023-03-16T00:51:37.012Z,5.50
2023-03-16T00:54:39.233Z,9.52
2023-03-16T00:57:41.867Z,8.77
2023-03-16T01:00:43.923Z,5.03
2023-03-16T01:03:46.664Z,4.00
2023-03-16T01:06:52.032Z,5.27
2023-03-16T01:09:54.141Z,2.55
2023-03-16T01:12:56.346Z,6.78
2023-03-16T01:15:59.665Z,4.45
2023-03-16T01:19:02.184Z,6.65
2023-03-16T01:22:06.551Z,5.30
2023-03-16T01:25:12.276Z,4.43
2023-03-16T01:28:14.422Z,4.95
2023-03-16T01:31:17.105Z,5.28
2023-03-16T01:34:19.269Z,3.75
2023-03-16T01:37:22.647Z,4.20
2023-03-16T01:40:24.694Z,2.90
2023-03-16T01:43:30.888Z,5.78
2023-03-16T01:46:33.196Z,4.07
2023-03-16T01:49:38.824Z,2.85
2023-03-16T01:52:40.966Z,6.80
2023-03-16T01:55:43.793Z,9.68
2023-03-16T01:58:47.098Z,6.53
2023-03-16T02:01:52.051Z,6.75
2023-03-16T02:05:42.515Z,4.30
2023-03-16T02:08:47.269Z,5.33
2023-03-16T02:11:50.325Z,5.90
2023-03-16T02:14:52.877Z,3.10
2023-03-16T02:17:58.221Z,7.15
2023-03-16T02:21:29.133Z,4.15
2023-03-16T02:24:31.571Z,5.47
2023-03-16T02:28:00.956Z,4.78
2023-03-16T02:31:05.119Z,12.50
2023-03-16T02:34:07.893Z,3.88
2023-03-16T02:37:10.469Z,6.68
2023-03-16T02:40:30.455Z,4.60
2023-03-16T02:43:36.412Z,8.15
2023-03-16T02:46:39.891Z,6.60
2023-03-16T02:50:06.623Z,6.20
2023-03-16T02:53:09.029Z,5.30
2023-03-16T02:56:11.582Z,2.57
2023-03-16T02:59:13.951Z,4.22
2023-03-16T03:02:15.997Z,5.13
2023-03-16T03:05:18.360Z,5.45
2023-03-16T03:08:22.562Z,5.68
2023-03-16T03:11:24.619Z,3.33
2023-03-16T03:14:28.600Z,6.50
2023-03-16T03:17:33.161Z,7.63
2023-03-16T03:20:35.484Z,9.02
2023-03-16T03:23:37.838Z,5.32
2023-03-16T03:26:39.826Z,5.43
2023-03-16T03:29:41.936Z,4.68
2023-03-16T03:32:44.843Z,4.35
2023-03-16T03:35:47.245Z,6.70
2023-03-16T03:38:54.935Z,4.18
2023-03-16T03:41:57.099Z,6.80
2023-03-16T03:44:59.204Z,6.65
2023-03-16T03:48:01.577Z,10.73
2023-03-16T03:51:04.284Z,6.82
2023-03-16T03:54:06.790Z,6.28
2023-03-16T03:57:09.962Z,8.13
2023-03-16T04:00:13.806Z,8.07
2023-03-16T04:03:17.819Z,7.35
2023-03-16T04:06:20.008Z,6.07
2023-03-16T04:09:22.680Z,7.18
2023-03-16T04:12:24.984Z,8.20
2023-03-16T04:15:27.438Z,5.95
2023-03-16T04:18:30.518Z,5.25
2023-03-16T04:21:32.679Z,8.48
2023-03-16T04:24:35.916Z,10.70
2023-03-16T04:27:38.506Z,7.47
2023-03-16T04:30:43.166Z,6.25
2023-03-16T04:33:45.891Z,7.03
2023-03-16T04:36:48.774Z,7.65
2023-03-16T04:39:51.132Z,10.43
2023-03-16T04:42:53.390Z,7.10
2023-03-16T04:45:56.185Z,9.55
2023-03-16T04:48:58.847Z,7.18
2023-03-16T04:52:03.217Z,8.13
2023-03-16T04:55:06.424Z,11.90
2023-03-16T04:58:11.454Z,6.53
2023-03-16T05:01:14.221Z,10.57
2023-03-16T05:04:19.597Z,5.15
2023-03-16T05:07:22.398Z,8.25
2023-03-16T05:10:25.268Z,9.50
2023-03-16T05:13:31.161Z,7.37
2023-03-16T05:16:33.977Z,5.35
2023-03-16T05:19:37.533Z,7.60
2023-03-16T05:22:45.261Z,9.27
2023-03-16T05:25:48.721Z,6.68
2023-03-16T05:28:51.086Z,10.00
2023-03-16T05:31:54.334Z,9.10
2023-03-16T05:35:00.913Z,11.00
2023-03-16T05:38:04.581Z,8.38
2023-03-16T05:41:07.872Z,7.28
2023-03-16T05:44:13.524Z,10.67
2023-03-16T05:47:15.574Z,12.55
2023-03-16T05:50:19.630Z,6.65
2023-03-16T05:53:30.831Z,9.60
2023-03-16T05:56:36.465Z,10.32
2023-03-16T05:59:38.624Z,7.47
2023-03-16T06:02:42.441Z,6.93
2023-03-16T06:05:44.566Z,5.43
2023-03-16T06:08:46.930Z,9.50
2023-03-16T06:11:51.414Z,4.68
2023-03-16T06:14:53.885Z,8.87
2023-03-16T06:17:56.140Z,9.65
2023-03-16T06:20:58.409Z,6.63
2023-03-16T06:24:01.044Z,8.30
2023-03-16T06:27:05.341Z,6.80
2023-03-16T06:30:12.146Z,6.13
2023-03-16T06:33:14.660Z,7.22
2023-03-16T06:36:17.559Z,4.32
2023-03-16T06:39:20.331Z,4.63
2023-03-16T06:42:24.014Z,11.00
2023-03-16T06:45:26.059Z,6.03
2023-03-16T06:48:28.665Z,6.82
2023-03-16T06:51:32.315Z,10.13
2023-03-16T06:54:35.381Z,10.45
2023-03-16T06:57:37.632Z,9.70
2023-03-16T07:00:40.034Z,21.00
2023-03-16T07:03:42.960Z,5.72
2023-03-16T07:06:45.035Z,5.50
2023-03-16T07:09:47.073Z,6.80
2023-03-16T07:12:50.451Z,5.57
2023-03-16T07:15:52.922Z,7.43
2023-03-16T07:18:55.562Z,7.88
2023-03-16T07:21:59.563Z,5.43
2023-03-16T07:25:05.352Z,8.82
2023-03-16T07:28:08.053Z,3.35
2023-03-16T07:31:11.337Z,7.23
2023-03-16T07:34:14.429Z,9.00
2023-03-16T07:37:18.337Z,7.03
2023-03-16T07:40:24.384Z,4.35
2023-03-16T07:43:27.047Z,10.15
2023-03-16T07:46:29.649Z,6.23
2023-03-16T07:49:41.366Z,5.88
2023-03-16T07:52:46.408Z,3.63
2023-03-16T07:55:49.892Z,4.53
2023-03-16T07:58:52.921Z,6.28
2023-03-16T08:01:55.653Z,6.07
2023-03-16T08:05:05.003Z,7.53
2023-03-16T08:08:09.895Z,8.15
2023-03-16T08:11:25.553Z,6.85
2023-03-16T08:14:40.110Z,7.63
2023-03-16T08:17:47.637Z,4.07
2023-03-16T08:21:04.739Z,5.63
2023-03-16T08:24:19.180Z,6.18
2023-03-16T08:27:22.452Z,8.70
2023-03-16T08:34:18.319Z,7.03
2023-03-16T08:37:29.410Z,8.18
2023-03-16T08:40:37.379Z,4.70
2023-03-16T08:43:58.514Z,9.45
2023-03-16T08:47:02.145Z,7.40
2023-03-16T08:50:20.778Z,9.27
2023-03-16T08:53:37.342Z,8.45
2023-03-16T08:56:45.572Z,8.63
2023-03-16T08:59:48.126Z,8.43
2023-03-16T09:03:17.005Z,6.80
2023-03-16T09:06:23.112Z,3.43
2023-03-16T09:09:27.741Z,3.90
2023-03-16T09:12:41.145Z,6.45
2023-03-16T09:15:44.773Z,6.65
2023-03-16T09:18:57.459Z,7.40
2023-03-16T09:22:01.120Z,4.83
2023-03-16T09:25:06.967Z,6.50
2023-03-16T09:28:09.416Z,7.50
2023-03-16T09:31:19.695Z,5.80
2023-03-16T09:37:27.776Z,3.10
2023-03-16T09:40:30.958Z,6.60
2023-03-16T09:43:58.451Z,6.47
2023-03-16T09:47:07.686Z,4.57
2023-03-16T09:50:21.635Z,10.48
2023-03-16T09:53:45.434Z,7.00
2023-03-16T09:56:54.261Z,7.70
2023-03-16T10:00:27.441Z,6.07
2023-03-16T10:03:46.098Z,5.63
2023-03-16T10:07:18.986Z,6.85
2023-03-16T10:10:31.862Z,6.87
2023-03-16T10:14:26.462Z,5.10
2023-03-16T10:17:54.264Z,6.95
2023-03-16T10:20:59.417Z,5.28
2023-03-16T10:24:05.465Z,4.60
2023-03-16T10:27:22.154Z,4.07
2023-03-16T10:30:33.516Z,4.57
2023-03-16T10:33:39.919Z,4.97
2023-03-16T10:36:46.112Z,4.45
2023-03-16T10:39:54.450Z,6.65
2023-03-16T10:42:58.195Z,4.83
2023-03-16T10:46:05.329Z,4.85
2023-03-16T10:49:27.661Z,3.10
2023-03-16T10:52:40.763Z,3.88
2023-03-16T10:55:46.006Z,3.75
2023-03-16T11:02:43.196Z,4.30
2023-03-16T11:11:29.017Z,5.35
2023-03-16T11:14:41.958Z,5.43
2023-03-16T11:17:56.493Z,5.00
2023-03-16T11:21:46.290Z,4.00
2023-03-16T11:30:11.557Z,4.10
2023-03-16T11:33:15.736Z,4.18
2023-03-16T11:36:55.684Z,3.50
2023-03-16T11:40:31.859Z,4.97
2023-03-16T11:43:55.777Z,4.20
2023-03-16T11:47:07.319Z,3.70
2023-03-16T11:55:19.142Z,4.00
2023-03-16T11:58:49.802Z,5.60
2023-03-16T12:02:33.928Z,5.72
2023-03-16T12:06:05.663Z,4.68
2023-03-16T12:09:33.517Z,4.68
2023-03-16T12:17:42.225Z,6.18
2023-03-16T12:24:48.373Z,3.15
2023-03-16T12:27:59.437Z,2.25
2023-03-16T12:31:17.177Z,2.23
2023-03-16T12:34:46.322Z,2.80
2023-03-16T12:42:33.969Z,3.63
2023-03-16T12:46:07.308Z,3.15
2023-03-16T12:49:10.541Z,2.37
2023-03-16T12:52:14.964Z,2.88
2023-03-16T12:55:20.671Z,3.55
2023-03-16T12:58:26.304Z,2.72
2023-03-16T13:01:31.554Z,4.82
2023-03-16T13:04:42.010Z,2.43
2023-03-16T13:08:07.949Z,1.48
2023-03-16T13:11:23.756Z,2.67
2023-03-16T13:19:16.950Z,2.38
2023-03-16T13:32:17.037Z,1.48
2023-03-16T13:35:21.848Z,2.30
2023-03-16T13:38:38.532Z,2.47
2023-03-16T13:42:26.011Z,1.53
2023-03-16T13:45:34.358Z,1.27
2023-03-16T13:48:41.297Z,4.85
2023-03-16T13:51:49.025Z,1.40
2023-03-16T13:54:58.408Z,1.50
2023-03-16T13:58:02.314Z,2.30
2023-03-16T14:01:23.755Z,1.42
2023-03-16T14:04:35.499Z,2.60
2023-03-16T14:07:40.381Z,4.03
2023-03-16T14:15:53.183Z,2.13
2023-03-16T14:20:06.094Z,2.67
2023-03-16T14:26:48.413Z,3.58
2023-03-16T14:30:04.772Z,1.67
2023-03-16T14:33:27.230Z,2.13
2023-03-16T14:36:35.525Z,1.80
2023-03-16T14:39:40.597Z,1.38
2023-03-16T14:42:46.814Z,1.17
2023-03-16T14:45:48.807Z,2.58
2023-03-16T14:48:50.736Z,2.20
2023-03-16T14:51:56.052Z,2.10
2023-03-16T14:54:59.291Z,1.52
2023-03-16T14:58:01.823Z,1.48
2023-03-16T15:01:06.414Z,2.35
2023-03-16T15:04:19.534Z,3.17
2023-03-16T15:07:32.311Z,2.30
2023-03-16T15:10:36.123Z,2.10
2023-03-16T15:13:40.706Z,2.00
2023-03-16T15:16:43.588Z,1.33
2023-03-16T15:19:45.494Z,2.00
2023-03-16T15:22:50.013Z,2.65
2023-03-16T15:25:57.369Z,1.40
2023-03-16T15:28:59.629Z,1.88
2023-03-16T15:32:01.932Z,1.52
2023-03-16T15:35:04.374Z,2.97
2023-03-16T15:38:14.984Z,1.77
2023-03-16T15:41:17.356Z,2.83
2023-03-16T15:44:22.974Z,1.30
2023-03-16T15:47:24.748Z,2.75
2023-03-16T15:50:27.345Z,1.93
2023-03-16T15:53:36.041Z,2.08
2023-03-16T15:56:53.751Z,1.38
2023-03-16T15:59:56.577Z,1.63
2023-03-16T16:02:59.780Z,1.75
2023-03-16T16:06:02.242Z,1.73
2023-03-16T16:09:05.596Z,1.55
2023-03-16T16:12:13.524Z,1.38
2023-03-16T16:15:21.770Z,2.53
2023-03-16T16:18:35.174Z,2.35
2023-03-16T16:21:37.068Z,2.87
2023-03-16T16:24:39.714Z,1.58
2023-03-16T16:27:41.813Z,2.72
2023-03-16T16:30:45.277Z,1.98
2023-03-16T16:33:47.996Z,3.42
2023-03-16T16:36:51.698Z,1.40
2023-03-16T16:39:53.801Z,1.92
2023-03-16T16:42:57.536Z,1.67
2023-03-16T16:46:04.600Z,3.28
2023-03-16T16:49:17.861Z,4.30
2023-03-16T16:52:19.972Z,1.80
2023-03-16T16:55:23.098Z,2.88
2023-03-16T16:58:26.018Z,2.83
2023-03-16T17:01:35.117Z,1.60
2023-03-16T17:04:37.396Z,4.60
2023-03-16T17:07:39.852Z,2.63
2023-03-16T17:10:44.935Z,3.38
2023-03-16T17:13:47.516Z,2.47
2023-03-16T17:16:53.506Z,3.10
2023-03-16T17:19:55.505Z,4.65
2023-03-16T17:22:58.800Z,2.40
2023-03-16T17:26:11.804Z,4.43
2023-03-16T17:29:28.076Z,4.22
2023-03-16T17:32:31.504Z,4.80
2023-03-16T17:35:33.685Z,4.00
2023-03-16T17:38:36.287Z,5.57
2023-03-16T17:41:38.396Z,3.20
2023-03-16T17:44:44.984Z,3.53
2023-03-16T17:47:48.393Z,4.40
2023-03-16T17:50:51.616Z,6.45
2023-03-16T17:53:54.713Z,4.57
2023-03-16T17:56:57.221Z,6.38
2023-03-16T18:00:04.803Z,6.63
2023-03-16T18:03:17.754Z,6.38
2023-03-16T18:06:23.975Z,8.25
2023-03-16T18:09:26.055Z,6.77
2023-03-16T18:12:28.460Z,5.88
2023-03-16T18:15:36.811Z,5.80
2023-03-16T18:18:43.157Z,4.90
2023-03-16T18:21:45.974Z,4.38
2023-03-16T18:24:50.221Z,7.77
2023-03-16T18:27:53.469Z,6.53
2023-03-16T18:30:58.580Z,7.15
2023-03-16T18:34:05.967Z,10.00
2023-03-16T18:37:17.269Z,10.10
2023-03-16T18:40:21.940Z,6.93
2023-03-16T18:43:26.735Z,8.13
2023-03-16T18:46:37.388Z,4.97
2023-03-16T18:49:40.036Z,9.07
2023-03-16T18:52:42.270Z,6.95
2023-03-16T18:55:45.131Z,9.90
2023-03-16T18:58:48.728Z,8.63
2023-03-16T19:01:52.299Z,9.70
2023-03-16T19:05:02.216Z,7.43
2023-03-16T19:08:05.116Z,12.70
2023-03-16T19:11:08.233Z,7.73
2023-03-16T19:14:20.395Z,8.98
2023-03-16T19:17:23.689Z,5.88
2023-03-16T19:20:29.244Z,8.18
2023-03-16T19:23:36.278Z,7.78
2023-03-16T19:26:39.165Z,9.23
2023-03-16T19:29:41.540Z,9.23
2023-03-16T19:32:46.495Z,9.77
2023-03-16T19:35:52.194Z,7.65
2023-03-16T19:38:56.528Z,8.25
2023-03-16T19:42:00.276Z,7.60
2023-03-16T19:45:04.411Z,10.75
2023-03-16T19:48:32.255Z,10.95
2023-03-16T19:51:34.759Z,11.15
2023-03-16T19:54:39.791Z,8.50
2023-03-16T19:57:42.618Z,9.33
2023-03-16T20:00:46.312Z,9.98
2023-03-16T20:03:51.734Z,10.50
2023-03-16T20:06:54.731Z,12.10
2023-03-16T20:09:57.584Z,11.82
2023-03-16T20:13:01.713Z,10.77
2023-03-16T20:16:04.018Z,14.60
2023-03-16T20:19:13.740Z,13.52
2023-03-16T20:22:22.450Z,10.77
2023-03-16T20:25:30.351Z,12.43
2023-03-16T20:28:36.361Z,12.50
2023-03-16T20:31:38.819Z,12.48
2023-03-16T20:34:41.047Z,11.10
2023-03-16T20:37:43.148Z,14.32
2023-03-16T20:40:47.629Z,10.07
2023-03-16T20:43:50.043Z,14.10
2023-03-16T20:46:52.330Z,13.93
2023-03-16T20:49:57.632Z,14.07
2023-03-16T20:53:00.928Z,14.20
2023-03-16T20:56:03.308Z,14.07
2023-03-16T20:59:05.413Z,14.07
2023-03-16T21:02:34.257Z,14.00
2023-03-16T21:05:36.585Z,13.95
2023-03-16T21:08:38.777Z,13.00
2023-03-16T21:11:43.748Z,14.57
2023-03-16T21:14:46.317Z,13.47
2023-03-16T21:18:01.948Z,11.20
2023-03-16T21:21:03.896Z,13.65
2023-03-16T21:24:06.967Z,12.57
2023-03-16T21:27:18.652Z,12.00
2023-03-16T21:30:29.668Z,13.60
2023-03-16T21:33:35.287Z,11.65
2023-03-16T21:36:37.353Z,13.38
2023-03-16T21:39:39.476Z,14.15
2023-03-16T21:42:41.498Z,14.10
2023-03-16T21:45:44.905Z,14.93
2023-03-16T21:48:55.872Z,13.68
2023-03-16T21:51:57.820Z,15.85
2023-03-16T21:55:00.707Z,12.38
2023-03-16T21:58:02.833Z,10.98
2023-03-16T22:01:04.735Z,10.77
2023-03-16T22:04:17.740Z,13.68
2023-03-16T22:07:20.837Z,11.48
2023-03-16T22:10:23.154Z,10.85
2023-03-16T22:13:29.573Z,12.68
2023-03-16T22:16:34.944Z,9.80
2023-03-16T22:19:37.091Z,10.45
2023-03-16T22:22:39.153Z,11.45
2023-03-16T22:25:40.996Z,12.80
2023-03-16T22:28:43.336Z,10.65
2023-03-16T22:31:47.170Z,12.13
2023-03-16T22:34:53.727Z,9.52
2023-03-16T22:37:57.432Z,13.73
2023-03-16T22:41:00.170Z,10.88
2023-03-16T22:44:02.264Z,13.48
2023-03-16T22:47:07.007Z,11.80
2023-03-16T22:50:15.010Z,16.63
2023-03-16T22:53:35.877Z,11.60
2023-03-16T22:56:46.948Z,10.55
2023-03-16T22:59:50.480Z,18.17
2023-03-16T23:02:52.549Z,9.93
2023-03-16T23:05:54.669Z,10.07
2023-03-16T23:08:56.939Z,9.40
2023-03-16T23:12:01.111Z,10.15
2023-03-16T23:15:03.511Z,9.70
2023-03-16T23:18:15.221Z,9.13
2023-03-16T23:21:20.810Z,10.20
2023-03-16T23:24:23.787Z,10.73
2023-03-16T23:27:25.620Z,11.65
2023-03-16T23:30:28.521Z,9.75
2023-03-16T23:33:31.575Z,12.13
2023-03-16T23:36:33.619Z,12.82
2023-03-16T23:39:35.374Z,13.40
2023-03-16T23:42:37.182Z,9.77
2023-03-16T23:45:45.378Z,10.00
2023-03-16T23:48:49.195Z,11.97
2023-03-16T23:51:52.553Z,9.50
2023-03-16T23:55:01.420Z,11.38
2023-03-16T23:58:03.408Z,10.73
